createdAt,value
2022-09-06T00:00:29.290Z,18.20
2022-09-06T00:02:58.298Z,18.20
2022-09-06T00:05:26.796Z,18.20
2022-09-06T00:07:55.045Z,18.20
2022-09-06T00:10:22.941Z,18.20
2022-09-06T00:12:50.842Z,18.10
2022-09-06T00:15:19.045Z,18.10
2022-09-06T00:17:46.967Z,18.10
2022-09-06T00:25:11.540Z,18.10
2022-09-06T00:27:39.442Z,18.10
2022-09-06T00:30:08.374Z,18.20
2022-09-06T00:32:36.348Z,18.20
2022-09-06T00:35:04.921Z,18.20
2022-09-06T00:37:32.916Z,18.40
2022-09-06T00:40:00.897Z,18.30
2022-09-06T00:42:28.913Z,18.30
2022-09-06T00:44:57.120Z,18.30
2022-09-06T00:47:27.269Z,18.30
2022-09-06T00:49:58.871Z,18.40
2022-09-06T00:52:28.981Z,18.40
2022-09-06T00:54:57.273Z,18.40
2022-09-06T00:57:27.289Z,18.40
2022-09-06T00:59:56.483Z,18.40
2022-09-06T01:02:24.511Z,18.40
2022-09-06T01:04:52.922Z,18.40
2022-09-06T01:07:57.292Z,18.40
2022-09-06T01:10:41.951Z,21.10
2022-09-06T01:13:41.968Z,18.70
2022-09-06T01:17:06.443Z,18.80
2022-09-06T01:20:05.152Z,18.80
2022-09-06T01:23:06.312Z,19.20
2022-09-06T01:26:11.852Z,19.80
2022-09-06T01:28:46.306Z,20.20
2022-09-06T01:31:35.506Z,20.40
2022-09-06T01:34:06.316Z,20.40
2022-09-06T01:37:09.483Z,20.30
2022-09-06T01:39:40.432Z,20.30
2022-09-06T01:42:18.692Z,20.30
2022-09-06T01:45:00.814Z,20.20
2022-09-06T01:47:43.424Z,20.30
2022-09-06T01:50:45.493Z,20.20
2022-09-06T01:53:45.257Z,20.10
2022-09-06T01:57:00.336Z,20.00
2022-09-06T01:59:59.037Z,19.90
2022-09-06T02:02:54.478Z,19.90
2022-09-06T02:05:46.143Z,19.90
2022-09-06T02:08:28.505Z,19.80
2022-09-06T02:11:06.465Z,19.70
2022-09-06T02:13:41.157Z,19.60
2022-09-06T02:16:14.257Z,19.50
2022-09-06T02:18:56.185Z,19.60
2022-09-06T02:21:33.773Z,19.60
2022-09-06T02:24:06.300Z,19.60
2022-09-06T02:26:41.173Z,19.60
2022-09-06T02:31:52.308Z,19.50
2022-09-06T02:34:21.208Z,19.40
2022-09-06T02:36:49.491Z,19.40
2022-09-06T02:39:17.399Z,19.40
2022-09-06T02:41:48.232Z,19.40
2022-09-06T02:44:16.551Z,19.30
2022-09-06T02:46:44.497Z,19.30
2022-09-06T02:49:12.329Z,19.30
2022-09-06T02:51:41.019Z,19.20
2022-09-06T02:54:09.551Z,19.20
2022-09-06T02:56:37.572Z,19.20
2022-09-06T02:59:05.685Z,19.20
2022-09-06T03:04:02.886Z,19.00
2022-09-06T03:06:31.509Z,18.90
2022-09-06T03:09:00.272Z,18.90
2022-09-06T03:11:28.902Z,18.80
2022-09-06T03:16:25.186Z,18.80
2022-09-06T03:21:21.452Z,18.70
2022-09-06T03:23:49.774Z,18.60
2022-09-06T03:28:45.981Z,18.50
2022-09-06T03:31:13.992Z,18.40
2022-09-06T03:33:41.984Z,18.40
2022-09-06T03:36:09.990Z,18.30
2022-09-06T03:38:38.057Z,18.30
2022-09-06T03:41:06.331Z,18.20
2022-09-06T03:46:02.782Z,18.00
2022-09-06T03:48:31.224Z,18.00
2022-09-06T03:51:00.081Z,17.90
2022-09-06T03:53:29.993Z,17.90
2022-09-06T03:55:58.779Z,17.90
2022-09-06T03:58:31.438Z,17.90
2022-09-06T04:01:09.304Z,17.80
2022-09-06T04:03:38.458Z,17.80
2022-09-06T04:06:07.896Z,17.60
2022-09-06T04:08:38.321Z,17.60
2022-09-06T04:11:07.074Z,17.60
2022-09-06T04:13:35.583Z,17.50
2022-09-06T04:16:05.161Z,17.60
2022-09-06T04:18:33.280Z,17.60
2022-09-06T04:23:30.132Z,17.60
2022-09-06T04:25:59.743Z,17.60
2022-09-06T04:31:04.913Z,17.50
2022-09-06T04:33:36.033Z,17.50
2022-09-06T04:36:07.647Z,17.50
2022-09-06T04:38:39.550Z,17.40
2022-09-06T04:41:09.419Z,17.30
2022-09-06T04:46:28.696Z,17.30
2022-09-06T04:48:58.204Z,17.20
2022-09-06T04:53:55.370Z,17.20
2022-09-06T04:56:25.522Z,17.30
2022-09-06T04:58:55.392Z,17.20
2022-09-06T05:06:25.670Z,17.20
2022-09-06T05:13:50.478Z,17.10
2022-09-06T05:31:12.069Z,17.00
2022-09-06T05:33:40.386Z,17.20
2022-09-06T05:36:08.903Z,17.10
2022-09-06T05:43:33.375Z,17.20
2022-09-06T05:48:33.297Z,17.20
2022-09-06T05:51:15.146Z,17.30
2022-09-06T05:53:45.113Z,17.30
2022-09-06T05:56:15.042Z,17.30
2022-09-06T06:01:29.562Z,17.30
2022-09-06T06:04:03.885Z,17.40
2022-09-06T06:06:34.463Z,17.40
2022-09-06T06:14:00.708Z,17.50
2022-09-06T06:21:28.589Z,17.60
2022-09-06T06:24:06.906Z,17.70
2022-09-06T06:26:36.689Z,17.80
2022-09-06T06:29:08.296Z,17.90
2022-09-06T06:31:38.331Z,18.00
2022-09-06T06:34:07.469Z,18.00
2022-09-06T06:36:37.464Z,18.10
2022-09-06T06:39:09.099Z,18.30
2022-09-06T06:44:23.329Z,18.50
2022-09-06T06:49:20.105Z,18.70
2022-09-06T06:51:47.981Z,18.80
2022-09-06T06:54:15.914Z,19.00
2022-09-06T06:56:45.752Z,19.10
2022-09-06T06:59:14.911Z,19.10
2022-09-06T07:01:43.145Z,19.30
2022-09-06T07:04:12.362Z,19.50
2022-09-06T07:14:59.832Z,19.80
2022-09-06T07:17:28.746Z,19.80
2022-09-06T07:22:40.897Z,20.00
2022-09-06T07:25:10.422Z,20.20
2022-09-06T07:30:14.529Z,20.30
2022-09-06T07:32:42.501Z,20.30
2022-09-06T07:35:12.438Z,20.30
2022-09-06T07:40:09.906Z,20.50
2022-09-06T07:42:38.058Z,20.60
2022-09-06T07:45:06.745Z,20.70
2022-09-06T07:53:15.305Z,21.00
2022-09-06T07:55:45.554Z,21.00
2022-09-06T07:58:14.457Z,21.10
2022-09-06T08:00:42.519Z,21.00
2022-09-06T08:03:11.561Z,21.00
2022-09-06T08:11:16.144Z,21.30
2022-09-06T08:13:44.614Z,21.50
2022-09-06T08:16:13.995Z,21.60
2022-09-06T08:18:42.193Z,21.70
2022-09-06T08:21:15.340Z,21.90
2022-09-06T08:23:56.089Z,22.10
2022-09-06T08:26:25.897Z,22.10
2022-09-06T08:29:05.934Z,22.30
2022-09-06T08:31:36.245Z,22.50
2022-09-06T08:34:04.408Z,22.70
2022-09-06T08:36:33.551Z,22.90
2022-09-06T08:39:05.417Z,22.90
2022-09-06T08:41:52.740Z,23.10
2022-09-06T08:45:04.151Z,23.00
2022-09-06T08:47:32.490Z,23.30
2022-09-06T08:50:07.260Z,23.40
2022-09-06T08:52:49.703Z,23.10
2022-09-06T08:56:03.160Z,23.40
2022-09-06T08:58:47.782Z,23.50
2022-09-06T09:01:25.413Z,23.60
2022-09-06T09:03:57.625Z,23.80
2022-09-06T09:06:26.990Z,24.10
2022-09-06T09:09:06.501Z,24.30
2022-09-06T09:11:36.372Z,24.40
2022-09-06T09:14:28.314Z,24.40
2022-09-06T09:17:05.042Z,25.20
2022-09-06T09:19:36.786Z,25.30
2022-09-06T09:22:04.742Z,25.30
2022-09-06T09:24:32.748Z,25.30
2022-09-06T09:27:13.915Z,25.40
2022-09-06T09:32:45.602Z,25.70
2022-09-06T09:35:32.111Z,25.30
2022-09-06T09:38:38.130Z,25.40
2022-09-06T09:41:08.312Z,25.50
2022-09-06T09:43:41.525Z,25.90
2022-09-06T09:46:22.187Z,26.20
2022-09-06T09:49:07.719Z,26.40
2022-09-06T09:51:45.235Z,26.90
2022-09-06T09:54:15.654Z,26.80
2022-09-06T09:56:50.452Z,26.80
2022-09-06T09:59:44.001Z,26.80
2022-09-06T10:02:35.865Z,26.90
2022-09-06T10:05:13.113Z,27.10
2022-09-06T10:07:55.822Z,27.40
2022-09-06T10:10:31.003Z,27.50
2022-09-06T10:13:13.854Z,27.50
2022-09-06T10:15:42.467Z,27.50
2022-09-06T10:18:41.613Z,27.90
2022-09-06T10:21:22.477Z,28.40
2022-09-06T10:26:56.138Z,28.50
2022-09-06T10:29:54.253Z,28.50
2022-09-06T10:32:47.512Z,28.90
2022-09-06T10:35:22.784Z,29.20
2022-09-06T10:38:13.407Z,29.10
2022-09-06T10:41:04.526Z,29.30
2022-09-06T10:43:55.777Z,29.70
2022-09-06T10:46:26.860Z,29.70
2022-09-06T10:48:55.093Z,29.80
2022-09-06T10:51:45.762Z,29.90
2022-09-06T10:54:25.185Z,30.10
2022-09-06T10:57:02.851Z,30.20
2022-09-06T11:02:20.777Z,30.50
2022-09-06T11:10:48.054Z,30.40
2022-09-06T11:13:17.790Z,30.30
2022-09-06T11:15:55.204Z,30.70
2022-09-06T11:18:55.866Z,31.00
2022-09-06T11:21:35.701Z,31.00
2022-09-06T11:24:22.841Z,31.80
2022-09-06T11:27:12.034Z,31.90
2022-09-06T11:29:45.728Z,31.60
2022-09-06T11:32:29.909Z,32.10
2022-09-06T11:35:01.428Z,31.80
2022-09-06T11:37:41.449Z,31.80
2022-09-06T11:40:27.312Z,31.30
2022-09-06T11:45:50.254Z,32.00
2022-09-06T11:48:24.094Z,32.20
2022-09-06T11:50:54.686Z,32.30
2022-09-06T11:53:25.408Z,32.20
2022-09-06T11:56:02.185Z,32.20
2022-09-06T11:58:42.022Z,32.00
2022-09-06T12:01:13.079Z,32.10
2022-09-06T12:06:36.224Z,32.50
2022-09-06T12:09:30.515Z,32.40
2022-09-06T12:12:01.322Z,32.90
2022-09-06T12:14:33.350Z,33.40
2022-09-06T12:17:01.463Z,33.30
2022-09-06T12:20:06.718Z,33.50
2022-09-06T12:22:37.418Z,32.80
2022-09-06T12:25:36.264Z,32.10
2022-09-06T12:28:07.043Z,32.10
2022-09-06T12:30:42.184Z,32.30
2022-09-06T12:33:25.745Z,32.50
2022-09-06T12:35:57.065Z,32.00
2022-09-06T12:38:26.061Z,32.10
2022-09-06T12:40:59.126Z,32.10
2022-09-06T12:43:27.510Z,32.70
2022-09-06T12:45:55.618Z,32.60
2022-09-06T12:48:30.384Z,32.60
2022-09-06T12:51:08.017Z,32.80
2022-09-06T12:53:36.010Z,32.80
2022-09-06T12:58:36.790Z,32.40
2022-09-06T13:01:29.973Z,32.50
2022-09-06T13:04:43.919Z,30.90
2022-09-06T13:07:16.175Z,31.00
2022-09-06T13:09:49.511Z,31.40
2022-09-06T13:12:30.999Z,31.50
2022-09-06T13:15:16.400Z,31.50
2022-09-06T13:17:44.847Z,31.40
2022-09-06T13:20:29.332Z,31.10
2022-09-06T13:23:22.995Z,30.90
2022-09-06T13:25:54.514Z,28.90
2022-09-06T13:28:34.569Z,27.70
2022-09-06T13:31:17.487Z,27.40
2022-09-06T13:33:46.454Z,27.40
2022-09-06T13:36:14.812Z,27.40
2022-09-06T13:38:45.475Z,27.40
2022-09-06T13:41:25.500Z,27.10
2022-09-06T13:44:04.525Z,27.00
2022-09-06T13:46:38.556Z,27.00
2022-09-06T13:49:06.973Z,27.10
2022-09-06T13:51:35.634Z,26.90
2022-09-06T13:54:12.364Z,26.10
2022-09-06T13:56:43.999Z,26.10
2022-09-06T13:59:12.747Z,25.70
2022-09-06T14:01:44.214Z,25.30
2022-09-06T14:04:21.441Z,25.20
2022-09-06T14:06:49.910Z,26.20
2022-09-06T14:09:18.006Z,24.80
2022-09-06T14:12:34.649Z,24.90
2022-09-06T14:15:02.851Z,24.80
2022-09-06T14:17:33.268Z,23.60
2022-09-06T14:20:04.599Z,22.60
2022-09-06T14:40:28.072Z,21.80
2022-09-06T15:03:29.350Z,22.00
2022-09-06T15:10:56.031Z,22.40
2022-09-06T15:15:57.062Z,22.90
2022-09-06T15:18:25.148Z,23.20
2022-09-06T15:20:53.474Z,23.70
2022-09-06T15:23:25.200Z,23.90
2022-09-06T15:25:54.256Z,23.60
2022-09-06T15:28:22.238Z,23.20
2022-09-06T15:30:50.362Z,23.00
2022-09-06T15:33:19.349Z,22.90
2022-09-06T15:35:57.263Z,22.80
2022-09-06T15:38:25.344Z,22.90
2022-09-06T15:40:53.262Z,23.00
2022-09-06T15:43:21.268Z,23.00
2022-09-06T15:45:50.635Z,23.10
2022-09-06T15:48:18.560Z,23.20
2022-09-06T15:50:51.634Z,23.20
2022-09-06T15:53:20.674Z,23.20
2022-09-06T15:55:57.760Z,23.30
2022-09-06T15:58:27.177Z,23.20
2022-09-06T16:01:07.926Z,23.00
2022-09-06T16:03:42.159Z,23.10
2022-09-06T16:06:31.424Z,23.20
2022-09-06T16:09:10.577Z,23.10
2022-09-06T16:11:38.582Z,23.00
2022-09-06T16:14:10.966Z,23.00
2022-09-06T16:16:40.584Z,23.00
2022-09-06T16:19:10.038Z,23.00
2022-09-06T16:21:41.718Z,23.00
2022-09-06T16:24:13.289Z,23.00
2022-09-06T16:26:45.933Z,23.10
2022-09-06T16:29:18.252Z,23.10
2022-09-06T16:31:47.137Z,23.10
2022-09-06T16:34:15.790Z,23.10
2022-09-06T16:36:43.812Z,23.10
2022-09-06T16:39:11.913Z,23.10
2022-09-06T16:41:44.008Z,23.10
2022-09-06T16:44:18.357Z,23.00
2022-09-06T16:46:49.731Z,22.90
2022-09-06T16:49:20.638Z,22.90
2022-09-06T16:51:50.698Z,22.80
2022-09-06T16:54:19.563Z,22.60
2022-09-06T16:56:47.885Z,22.60
2022-09-06T16:59:17.389Z,22.50
2022-09-06T17:01:46.345Z,22.50
2022-09-06T17:04:14.817Z,22.60
2022-09-06T17:06:44.660Z,22.80
2022-09-06T17:09:16.117Z,22.90
2022-09-06T17:11:44.274Z,23.00
2022-09-06T17:14:13.751Z,23.00
2022-09-06T17:17:20.148Z,23.10
2022-09-06T17:19:48.132Z,23.10
2022-09-06T17:22:16.241Z,23.00
2022-09-06T17:24:44.192Z,22.80
2022-09-06T17:27:12.434Z,22.70
2022-09-06T17:29:40.359Z,22.70
2022-09-06T17:32:11.227Z,22.50
2022-09-06T17:34:40.937Z,22.40
2022-09-06T17:37:09.119Z,22.30
2022-09-06T17:39:37.697Z,22.20
2022-09-06T17:42:06.487Z,22.20
2022-09-06T17:44:34.972Z,22.10
2022-09-06T17:47:18.889Z,22.00
2022-09-06T17:49:47.412Z,21.90
2022-09-06T17:52:15.489Z,21.80
2022-09-06T17:54:46.943Z,21.70
2022-09-06T17:57:14.959Z,21.60
2022-09-06T17:59:43.217Z,21.50
2022-09-06T18:02:11.268Z,21.50
2022-09-06T18:04:39.443Z,21.50
2022-09-06T18:07:07.485Z,21.40
2022-09-06T18:09:37.129Z,21.30
2022-09-06T18:14:35.162Z,21.20
2022-09-06T18:17:26.853Z,21.20
2022-09-06T18:19:54.987Z,21.10
2022-09-06T18:22:23.012Z,21.00
2022-09-06T18:24:55.002Z,20.90
2022-09-06T18:29:53.837Z,20.60
2022-09-06T18:32:21.975Z,20.60
2022-09-06T18:34:50.174Z,20.70
2022-09-06T18:37:18.923Z,20.40
2022-09-06T18:39:47.253Z,20.40
2022-09-06T18:42:15.428Z,20.40
2022-09-06T18:44:44.462Z,20.40
2022-09-06T18:47:14.076Z,20.40
2022-09-06T18:49:44.556Z,20.30
2022-09-06T18:52:13.049Z,20.20
2022-09-06T18:57:10.571Z,20.30
2022-09-06T18:59:38.639Z,20.30
2022-09-06T19:02:06.934Z,20.20
2022-09-06T19:04:35.106Z,20.20
2022-09-06T19:07:03.989Z,20.20
2022-09-06T19:09:32.101Z,20.20
2022-09-06T19:12:00.496Z,20.10
2022-09-06T19:14:28.610Z,20.10
2022-09-06T19:16:56.605Z,20.10
2022-09-06T19:19:25.834Z,20.10
2022-09-06T19:21:54.472Z,20.10
2022-09-06T19:24:22.893Z,20.10
2022-09-06T19:26:51.595Z,20.00
2022-09-06T19:29:19.921Z,20.00
2022-09-06T19:31:48.596Z,20.00
2022-09-06T19:34:16.700Z,19.90
2022-09-06T19:39:16.724Z,19.80
2022-09-06T19:41:47.455Z,19.80
2022-09-06T19:44:18.435Z,19.80
2022-09-06T19:49:19.552Z,19.90
2022-09-06T19:51:49.455Z,19.90
2022-09-06T19:54:18.248Z,19.80
2022-09-06T19:59:16.361Z,19.70
2022-09-06T20:01:46.652Z,19.70
2022-09-06T20:04:15.963Z,19.70
2022-09-06T20:09:13.453Z,19.70
2022-09-06T20:11:42.716Z,19.60
2022-09-06T20:14:12.284Z,19.60
2022-09-06T20:16:42.485Z,19.50
2022-09-06T20:19:12.669Z,19.50
2022-09-06T20:26:37.919Z,19.40
2022-09-06T20:29:06.978Z,19.40
2022-09-06T20:31:37.419Z,19.30
2022-09-06T20:34:07.133Z,19.30
2022-09-06T20:36:35.513Z,19.30
2022-09-06T20:39:04.263Z,19.30
2022-09-06T20:41:33.941Z,19.20
2022-09-06T20:46:34.020Z,19.20
2022-09-06T20:51:36.030Z,19.20
2022-09-06T20:54:05.604Z,19.20
2022-09-06T20:56:37.663Z,19.10
2022-09-06T20:59:09.653Z,19.10
2022-09-06T21:01:42.532Z,19.10
2022-09-06T21:04:13.101Z,18.90
2022-09-06T21:09:12.525Z,18.80
2022-09-06T21:16:38.862Z,18.50
2022-09-06T21:19:09.519Z,18.50
2022-09-06T21:24:09.101Z,18.40
2022-09-06T21:31:36.733Z,18.20
2022-09-06T21:34:15.634Z,18.20
2022-09-06T21:41:43.969Z,18.10
2022-09-06T21:46:41.703Z,18.10
2022-09-06T21:49:12.895Z,18.10
2022-09-06T21:56:40.093Z,18.10
2022-09-06T21:59:09.045Z,18.10
2022-09-06T22:01:38.725Z,18.00
2022-09-06T22:04:08.829Z,18.10
2022-09-06T22:09:11.170Z,18.00
2022-09-06T22:11:41.840Z,17.80
2022-09-06T22:14:14.142Z,17.70
2022-09-06T22:19:12.162Z,17.80
2022-09-06T22:24:11.188Z,17.80
2022-09-06T22:26:41.135Z,19.90
2022-09-06T22:29:11.187Z,17.90
2022-09-06T22:34:08.745Z,17.80
2022-09-06T22:41:34.212Z,17.80
2022-09-06T22:44:04.079Z,17.80
2022-09-06T22:46:32.874Z,17.90
2022-09-06T22:49:02.305Z,17.80
2022-09-06T22:51:30.344Z,17.80
2022-09-06T22:56:26.459Z,17.80
2022-09-06T22:58:54.762Z,17.80
2022-09-06T23:11:18.833Z,17.80
2022-09-06T23:16:19.062Z,17.80
2022-09-06T23:18:48.336Z,17.80
2022-09-06T23:21:20.302Z,17.80
2022-09-06T23:23:50.370Z,17.70
2022-09-06T23:26:32.825Z,17.80
2022-09-06T23:31:33.860Z,17.80
2022-09-06T23:36:32.373Z,17.80
2022-09-06T23:41:31.064Z,17.90
